sensor_id;sensor_type;location;lat;lon;timestamp;pressure;altitude;pressure_sealevel;temperature;humidity
49585;BME280;35491;49.142;9.210;2023-06-10T00:00:38;99423.34;;;21.01;45.94
49585;BME280;35491;49.142;9.210;2023-06-10T00:01:42;99417.41;;;21.04;45.89
49585;BME280;35491;49.142;9.210;2023-06-10T00:02:47;99414.72;;;21.04;45.56
49585;BME280;35491;49.142;9.210;2023-06-10T00:03:51;99417.50;;;20.97;45.71
49585;BME280;35491;49.142;9.210;2023-06-10T00:04:52;99415.19;;;21.01;45.68
49585;BME280;35491;49.142;9.210;2023-06-10T00:06:00;99412.53;;;20.94;45.75
49585;BME280;35491;49.142;9.210;2023-06-10T00:07:05;99415.03;;;20.96;46.05
49585;BME280;35491;49.142;9.210;2023-06-10T00:08:09;99410.88;;;20.93;45.94
49585;BME280;35491;49.142;9.210;2023-06-10T00:09:12;99412.19;;;20.91;46.13
49585;BME280;35491;49.142;9.210;2023-06-10T00:10:15;99421.16;;;20.91;45.95
49585;BME280;35491;49.142;9.210;2023-06-10T00:11:18;99417.13;;;20.94;45.92
49585;BME280;35491;49.142;9.210;2023-06-10T00:12:19;99421.31;;;20.96;45.89
49585;BME280;35491;49.142;9.210;2023-06-10T00:13:23;99416.31;;;20.93;45.86
49585;BME280;35491;49.142;9.210;2023-06-10T00:14:24;99413.72;;;20.98;45.93
49585;BME280;35491;49.142;9.210;2023-06-10T00:15:28;99417.63;;;20.91;46.06
49585;BME280;35491;49.142;9.210;2023-06-10T00:16:29;99412.25;;;20.84;45.98
49585;BME280;35491;49.142;9.210;2023-06-10T00:17:33;99414.66;;;20.92;45.91
49585;BME280;35491;49.142;9.210;2023-06-10T00:18:34;99415.47;;;20.93;45.85
49585;BME280;35491;49.142;9.210;2023-06-10T00:19:39;99417.63;;;20.91;46.01
49585;BME280;35491;49.142;9.210;2023-06-10T00:20:42;99412.63;;;20.87;46.02
49585;BME280;35491;49.142;9.210;2023-06-10T00:21:48;99412.38;;;20.89;46.07
49585;BME280;35491;49.142;9.210;2023-06-10T00:22:51;99417.69;;;20.84;45.83
49585;BME280;35491;49.142;9.210;2023-06-10T00:23:56;99411.81;;;20.87;46.04
49585;BME280;35491;49.142;9.210;2023-06-10T00:24:57;99414.97;;;20.84;46.12
49585;BME280;35491;49.142;9.210;2023-06-10T00:26:01;99418.97;;;20.81;46.04
49585;BME280;35491;49.142;9.210;2023-06-10T00:27:02;99416.03;;;20.83;45.97
49585;BME280;35491;49.142;9.210;2023-06-10T00:28:07;99425.22;;;20.82;45.87
49585;BME280;35491;49.142;9.210;2023-06-10T00:29:08;99420.41;;;20.84;45.93
49585;BME280;35491;49.142;9.210;2023-06-10T00:30:13;99418.59;;;20.78;45.86
49585;BME280;35491;49.142;9.210;2023-06-10T00:31:14;99421.53;;;20.76;45.79
49585;BME280;35491;49.142;9.210;2023-06-10T00:32:17;99421.78;;;20.75;45.88
49585;BME280;35491;49.142;9.210;2023-06-10T00:33:18;99419.41;;;20.78;45.92
49585;BME280;35491;49.142;9.210;2023-06-10T00:34:22;99421.31;;;20.78;45.89
49585;BME280;35491;49.142;9.210;2023-06-10T00:35:23;99418.13;;;20.81;45.88
49585;BME280;35491;49.142;9.210;2023-06-10T00:36:27;99418.50;;;20.84;45.69
49585;BME280;35491;49.142;9.210;2023-06-10T00:37:32;99422.38;;;20.77;45.91
49585;BME280;35491;49.142;9.210;2023-06-10T00:38:36;99424.41;;;20.81;45.69
49585;BME280;35491;49.142;9.210;2023-06-10T00:39:37;99423.13;;;20.84;45.81
49585;BME280;35491;49.142;9.210;2023-06-10T00:40:41;99415.72;;;20.91;45.72
49585;BME280;35491;49.142;9.210;2023-06-10T00:41:42;99431.41;;;20.89;45.43
49585;BME280;35491;49.142;9.210;2023-06-10T00:42:46;99418.59;;;20.96;45.51
49585;BME280;35491;49.142;9.210;2023-06-10T00:43:47;99429.13;;;21.04;45.04
49585;BME280;35491;49.142;9.210;2023-06-10T00:44:51;99423.34;;;21.01;45.34
49585;BME280;35491;49.142;9.210;2023-06-10T00:45:52;99427.94;;;21.00;45.24
49585;BME280;35491;49.142;9.210;2023-06-10T00:46:57;99429.13;;;21.04;45.16
49585;BME280;35491;49.142;9.210;2023-06-10T00:47:59;99434.09;;;21.08;45.32
49585;BME280;35491;49.142;9.210;2023-06-10T00:49:04;99427.41;;;21.10;44.90
49585;BME280;35491;49.142;9.210;2023-06-10T00:50:06;99419.81;;;21.12;44.83
49585;BME280;35491;49.142;9.210;2023-06-10T00:51:10;99430.25;;;21.15;44.82
49585;BME280;35491;49.142;9.210;2023-06-10T00:52:13;99421.97;;;21.10;44.91
49585;BME280;35491;49.142;9.210;2023-06-10T00:53:21;99428.09;;;21.06;45.36
49585;BME280;35491;49.142;9.210;2023-06-10T00:54:22;99428.16;;;20.99;45.30
49585;BME280;35491;49.142;9.210;2023-06-10T00:55:26;99417.50;;;20.97;45.27
49585;BME280;35491;49.142;9.210;2023-06-10T00:56:28;99422.72;;;20.99;45.07
49585;BME280;35491;49.142;9.210;2023-06-10T00:57:32;99425.16;;;20.88;45.45
49585;BME280;35491;49.142;9.210;2023-06-10T00:58:33;99432.25;;;20.90;45.55
49585;BME280;35491;49.142;9.210;2023-06-10T00:59:37;99428.47;;;20.91;45.66
49585;BME280;35491;49.142;9.210;2023-06-10T01:00:40;99426.81;;;20.90;45.84
49585;BME280;35491;49.142;9.210;2023-06-10T01:01:46;99423.84;;;20.91;45.76
49585;BME280;35491;49.142;9.210;2023-06-10T01:02:47;99427.56;;;20.97;45.88
49585;BME280;35491;49.142;9.210;2023-06-10T01:03:54;99430.63;;;21.00;45.81
49585;BME280;35491;49.142;9.210;2023-06-10T07:23:52;99563.84;;;23.12;47.53
49585;BME280;35491;49.142;9.210;2023-06-10T07:24:59;99555.50;;;23.43;46.67
49585;BME280;35491;49.142;9.210;2023-06-10T07:27:28;99549.66;;;23.80;46.01
49585;BME280;35491;49.142;9.210;2023-06-10T07:30:44;99558.38;;;23.94;46.04
49585;BME280;35491;49.142;9.210;2023-06-10T07:32:57;99554.66;;;23.71;46.09
49585;BME280;35491;49.142;9.210;2023-06-10T07:34:02;99559.38;;;23.59;46.22
49585;BME280;35491;49.142;9.210;2023-06-10T07:37:32;99552.50;;;23.85;46.06
49585;BME280;35491;49.142;9.210;2023-06-10T07:39:48;99552.41;;;24.26;45.24
49585;BME280;35491;49.142;9.210;2023-06-10T07:42:01;99550.16;;;24.57;44.48
49585;BME280;35491;49.142;9.210;2023-06-10T07:44:09;99546.44;;;24.63;44.56
49585;BME280;35491;49.142;9.210;2023-06-10T07:45:19;99539.81;;;24.76;44.44
49585;BME280;35491;49.142;9.210;2023-06-10T07:46:20;99548.34;;;24.63;44.38
49585;BME280;35491;49.142;9.210;2023-06-10T07:48:31;99546.88;;;24.38;44.95
49585;BME280;35491;49.142;9.210;2023-06-10T07:50:46;99545.88;;;24.78;44.11
49585;BME280;35491;49.142;9.210;2023-06-10T07:51:51;99541.81;;;24.81;44.20
49585;BME280;35491;49.142;9.210;2023-06-10T07:55:07;99538.91;;;24.87;43.64
49585;BME280;35491;49.142;9.210;2023-06-10T07:56:11;99548.84;;;24.76;44.04
49585;BME280;35491;49.142;9.210;2023-06-10T07:59:25;99544.13;;;25.33;43.14
49585;BME280;35491;49.142;9.210;2023-06-10T08:02:40;99539.84;;;25.87;42.17
49585;BME280;35491;49.142;9.210;2023-06-10T08:03:44;99539.66;;;25.99;42.00
49585;BME280;35491;49.142;9.210;2023-06-10T08:05:54;99544.63;;;25.75;42.55
49585;BME280;35491;49.142;9.210;2023-06-10T08:06:59;99550.00;;;25.64;42.72
49585;BME280;35491;49.142;9.210;2023-06-10T08:08:03;99546.44;;;25.42;42.94
49585;BME280;35491;49.142;9.210;2023-06-10T08:09:07;99546.63;;;25.57;42.46
49585;BME280;35491;49.142;9.210;2023-06-10T08:10:11;99547.13;;;25.54;42.52
49585;BME280;35491;49.142;9.210;2023-06-10T08:11:15;99550.59;;;25.72;42.29
49585;BME280;35491;49.142;9.210;2023-06-10T08:12:17;99547.00;;;25.93;42.19
49585;BME280;35491;49.142;9.210;2023-06-10T08:17:01;99531.69;;;26.25;41.01
49585;BME280;35491;49.142;9.210;2023-06-10T08:20:27;99530.34;;;26.27;40.72
49585;BME280;35491;49.142;9.210;2023-06-10T08:22:40;99530.00;;;26.56;40.36
49585;BME280;35491;49.142;9.210;2023-06-10T08:23:44;99523.66;;;26.51;40.60
49585;BME280;35491;49.142;9.210;2023-06-10T08:24:45;99534.34;;;26.14;40.96
49585;BME280;35491;49.142;9.210;2023-06-10T08:26:54;99532.97;;;26.12;41.20
49585;BME280;35491;49.142;9.210;2023-06-10T08:27:58;99527.06;;;26.25;40.87
49585;BME280;35491;49.142;9.210;2023-06-10T08:30:07;99522.44;;;26.69;40.17
49585;BME280;35491;49.142;9.210;2023-06-10T08:31:11;99526.69;;;26.87;40.06
49585;BME280;35491;49.142;9.210;2023-06-10T08:32:12;99516.63;;;27.08;39.43
49585;BME280;35491;49.142;9.210;2023-06-10T08:34:25;99517.66;;;26.91;39.61
49585;BME280;35491;49.142;9.210;2023-06-10T08:35:29;99516.16;;;26.73;39.99
49585;BME280;35491;49.142;9.210;2023-06-10T08:36:30;99516.06;;;27.01;39.86
49585;BME280;35491;49.142;9.210;2023-06-10T08:37:34;99520.25;;;27.19;39.31
49585;BME280;35491;49.142;9.210;2023-06-10T08:39:38;99515.75;;;26.97;39.63
49585;BME280;35491;49.142;9.210;2023-06-10T08:40:43;99510.75;;;26.84;39.97
49585;BME280;35491;49.142;9.210;2023-06-10T08:42:56;99517.69;;;27.02;39.41
49585;BME280;35491;49.142;9.210;2023-06-10T08:44:07;99524.00;;;27.02;39.31
49585;BME280;35491;49.142;9.210;2023-06-10T08:46:14;99519.03;;;26.94;39.84
49585;BME280;35491;49.142;9.210;2023-06-10T08:47:18;99517.09;;;26.89;39.79
49585;BME280;35491;49.142;9.210;2023-06-10T08:48:20;99525.06;;;26.91;39.53
49585;BME280;35491;49.142;9.210;2023-06-10T08:49:27;99525.47;;;26.72;39.75
49585;BME280;35491;49.142;9.210;2023-06-10T08:50:31;99522.00;;;26.82;39.55
49585;BME280;35491;49.142;9.210;2023-06-10T08:51:35;99526.91;;;26.80;39.79
49585;BME280;35491;49.142;9.210;2023-06-10T08:52:38;99525.09;;;26.96;39.72
49585;BME280;35491;49.142;9.210;2023-06-10T08:53:50;99526.81;;;27.18;39.24
49585;BME280;35491;49.142;9.210;2023-06-10T08:54:57;99520.94;;;27.52;38.45
49585;BME280;35491;49.142;9.210;2023-06-10T08:56:04;99519.00;;;27.47;38.52
49585;BME280;35491;49.142;9.210;2023-06-10T08:58:17;99519.38;;;28.02;37.74
49585;BME280;35491;49.142;9.210;2023-06-10T08:59:21;99516.63;;;27.97;37.79
49585;BME280;35491;49.142;9.210;2023-06-10T09:00:23;99517.16;;;27.79;37.93
49585;BME280;35491;49.142;9.210;2023-06-10T09:01:28;99514.38;;;27.58;38.38
49585;BME280;35491;49.142;9.210;2023-06-10T09:02:32;99522.09;;;27.87;38.11
49585;BME280;35491;49.142;9.210;2023-06-10T09:03:37;99518.78;;;27.75;38.03
49585;BME280;35491;49.142;9.210;2023-06-10T09:04:41;99520.72;;;27.74;38.02
49585;BME280;35491;49.142;9.210;2023-06-10T09:06:49;99522.41;;;28.01;37.69
49585;BME280;35491;49.142;9.210;2023-06-10T09:08:58;99512.22;;;28.53;36.64
49585;BME280;35491;49.142;9.210;2023-06-10T09:10:03;99505.94;;;28.32;36.69
49585;BME280;35491;49.142;9.210;2023-06-10T09:11:07;99505.38;;;28.25;37.04
49585;BME280;35491;49.142;9.210;2023-06-10T09:12:12;99510.34;;;28.12;37.17
49585;BME280;35491;49.142;9.210;2023-06-10T09:13:17;99505.94;;;27.96;37.52
49585;BME280;35491;49.142;9.210;2023-06-10T09:14:20;99506.50;;;28.29;37.07
49585;BME280;35491;49.142;9.210;2023-06-10T09:15:22;99513.38;;;28.37;37.02
49585;BME280;35491;49.142;9.210;2023-06-10T09:16:25;99496.88;;;28.31;37.21
49585;BME280;35491;49.142;9.210;2023-06-10T09:17:26;99508.13;;;28.09;37.54
49585;BME280;35491;49.142;9.210;2023-06-10T09:18:30;99507.34;;;28.09;37.57
49585;BME280;35491;49.142;9.210;2023-06-10T09:19:32;99500.47;;;28.11;37.59
49585;BME280;35491;49.142;9.210;2023-06-10T09:20:36;99504.84;;;28.12;37.76
49585;BME280;35491;49.142;9.210;2023-06-10T09:21:39;99505.94;;;28.11;37.22
49585;BME280;35491;49.142;9.210;2023-06-10T09:22:42;99497.69;;;27.96;37.51
49585;BME280;35491;49.142;9.210;2023-06-10T09:23:46;99498.78;;;28.26;36.95
49585;BME280;35491;49.142;9.210;2023-06-10T09:24:47;99500.94;;;28.65;36.45
49585;BME280;35491;49.142;9.210;2023-06-10T09:25:56;99496.47;;;28.95;35.82
49585;BME280;35491;49.142;9.210;2023-06-10T09:27:07;99499.59;;;28.52;36.07
49585;BME280;35491;49.142;9.210;2023-06-10T09:28:17;99489.69;;;28.41;36.25
49585;BME280;35491;49.142;9.210;2023-06-10T09:29:19;99497.41;;;28.23;36.95
49585;BME280;35491;49.142;9.210;2023-06-10T09:31:25;99501.56;;;28.31;36.86
49585;BME280;35491;49.142;9.210;2023-06-10T09:32:28;99496.56;;;28.48;36.85
49585;BME280;35491;49.142;9.210;2023-06-10T09:33:31;99495.44;;;28.75;36.50
49585;BME280;35491;49.142;9.210;2023-06-10T09:34:36;99495.34;;;29.06;35.74
49585;BME280;35491;49.142;9.210;2023-06-10T09:35:45;99495.25;;;29.32;35.37
49585;BME280;35491;49.142;9.210;2023-06-10T09:36:49;99491.03;;;29.50;35.00
49585;BME280;35491;49.142;9.210;2023-06-10T09:37:51;99489.81;;;29.67;34.93
49585;BME280;35491;49.142;9.210;2023-06-10T09:38:56;99482.97;;;29.59;34.46
49585;BME280;35491;49.142;9.210;2023-06-10T09:40:04;99473.59;;;29.10;34.83
49585;BME280;35491;49.142;9.210;2023-06-10T09:41:06;99489.38;;;28.68;35.47
49585;BME280;35491;49.142;9.210;2023-06-10T09:42:16;99486.94;;;28.56;35.10
49585;BME280;35491;49.142;9.210;2023-06-10T09:43:23;99487.44;;;28.84;35.09
49585;BME280;35491;49.142;9.210;2023-06-10T09:45:44;99483.28;;;29.57;33.98
49585;BME280;35491;49.142;9.210;2023-06-10T09:46:49;99487.72;;;29.48;34.07
49585;BME280;35491;49.142;9.210;2023-06-10T09:47:54;99491.41;;;29.73;33.92
49585;BME280;35491;49.142;9.210;2023-06-10T09:48:59;99489.44;;;29.84;33.85
49585;BME280;35491;49.142;9.210;2023-06-10T09:50:00;99482.91;;;29.69;34.04
49585;BME280;35491;49.142;9.210;2023-06-10T09:51:08;99487.28;;;29.76;33.83
49585;BME280;35491;49.142;9.210;2023-06-10T09:52:10;99478.91;;;29.91;33.65
49585;BME280;35491;49.142;9.210;2023-06-10T09:55:28;99483.78;;;29.09;34.03
49585;BME280;35491;49.142;9.210;2023-06-10T10:00:25;99474.47;;;29.55;33.59
49585;BME280;35491;49.142;9.210;2023-06-10T10:02:44;99475.06;;;29.87;32.91
49585;BME280;35491;49.142;9.210;2023-06-10T10:03:51;99475.00;;;29.97;33.07
49585;BME280;35491;49.142;9.210;2023-06-10T10:04:52;99474.81;;;29.83;33.33
49585;BME280;35491;49.142;9.210;2023-06-10T10:05:58;99469.41;;;30.08;32.74
49585;BME280;35491;49.142;9.210;2023-06-10T10:07:00;99462.56;;;30.05;32.55
49585;BME280;35491;49.142;9.210;2023-06-10T10:08:04;99455.56;;;30.18;32.76
49585;BME280;35491;49.142;9.210;2023-06-10T10:09:06;99464.34;;;30.20;32.48
49585;BME280;35491;49.142;9.210;2023-06-10T10:10:10;99457.38;;;29.98;32.61
49585;BME280;35491;49.142;9.210;2023-06-10T10:11:12;99469.88;;;30.20;32.43
49585;BME280;35491;49.142;9.210;2023-06-10T10:12:18;99464.63;;;30.48;31.97
49585;BME280;35491;49.142;9.210;2023-06-10T10:13:19;99460.19;;;30.52;31.59
49585;BME280;35491;49.142;9.210;2023-06-10T10:14:23;99455.53;;;29.83;31.49
49585;BME280;35491;49.142;9.210;2023-06-10T10:15:30;99456.47;;;29.73;31.51
49585;BME280;35491;49.142;9.210;2023-06-10T10:16:40;99466.63;;;30.13;31.11
49585;BME280;35491;49.142;9.210;2023-06-10T10:18:47;99462.50;;;30.10;31.20
49585;BME280;35491;49.142;9.210;2023-06-10T10:23:33;99452.16;;;29.97;31.70
49585;BME280;35491;49.142;9.210;2023-06-10T10:24:44;99451.16;;;30.17;31.58
49585;BME280;35491;49.142;9.210;2023-06-10T10:25:51;99449.50;;;30.16;31.61
49585;BME280;35491;49.142;9.210;2023-06-10T10:28:08;99453.84;;;29.48;32.20
49585;BME280;35491;49.142;9.210;2023-06-10T10:29:18;99458.19;;;29.59;32.43
49585;BME280;35491;49.142;9.210;2023-06-10T10:30:23;99451.22;;;29.32;32.74
49585;BME280;35491;49.142;9.210;2023-06-10T10:31:32;99446.41;;;28.98;33.34
49585;BME280;35491;49.142;9.210;2023-06-10T10:33:45;99457.25;;;28.53;33.76
49585;BME280;35491;49.142;9.210;2023-06-10T10:35:01;99456.41;;;28.63;33.58
49585;BME280;35491;49.142;9.210;2023-06-10T10:36:06;99450.03;;;28.88;33.32
49585;BME280;35491;49.142;9.210;2023-06-10T10:38:14;99444.53;;;29.44;32.29
49585;BME280;35491;49.142;9.210;2023-06-10T10:39:18;99435.84;;;29.66;32.37
49585;BME280;35491;49.142;9.210;2023-06-10T10:40:22;99443.78;;;29.72;32.17
49585;BME280;35491;49.142;9.210;2023-06-10T10:42:29;99451.63;;;29.55;31.65
49585;BME280;35491;49.142;9.210;2023-06-10T10:43:33;99442.25;;;29.91;30.95
49585;BME280;35491;49.142;9.210;2023-06-10T10:44:35;99439.94;;;30.08;30.96
49585;BME280;35491;49.142;9.210;2023-06-10T10:45:39;99438.72;;;30.49;30.53
49585;BME280;35491;49.142;9.210;2023-06-10T10:47:52;99434.25;;;30.77;30.03
49585;BME280;35491;49.142;9.210;2023-06-10T10:49:01;99437.63;;;30.45;30.21
49585;BME280;35491;49.142;9.210;2023-06-10T10:51:05;99431.81;;;30.76;30.11
49585;BME280;35491;49.142;9.210;2023-06-10T10:52:12;99440.09;;;30.95;29.56
49585;BME280;35491;49.142;9.210;2023-06-10T10:53:19;99442.63;;;30.72;29.56
49585;BME280;35491;49.142;9.210;2023-06-10T10:55:33;99438.75;;;30.73;29.86
49585;BME280;35491;49.142;9.210;2023-06-10T10:57:44;99442.09;;;30.41;29.76
49585;BME280;35491;49.142;9.210;2023-06-10T10:59:03;99446.84;;;30.35;29.94
49585;BME280;35491;49.142;9.210;2023-06-10T11:01:13;99429.91;;;30.95;29.22
49585;BME280;35491;49.142;9.210;2023-06-10T11:03:32;99429.16;;;30.65;29.66
49585;BME280;35491;49.142;9.210;2023-06-10T11:06:13;99438.63;;;30.59;30.13
49585;BME280;35491;49.142;9.210;2023-06-10T11:08:49;99426.16;;;31.30;28.54
49585;BME280;35491;49.142;9.210;2023-06-10T11:10:56;99425.78;;;31.17;28.98
49585;BME280;35491;49.142;9.210;2023-06-10T11:12:00;99420.72;;;31.24;29.01
49585;BME280;35491;49.142;9.210;2023-06-10T11:13:06;99417.25;;;31.52;28.47
49585;BME280;35491;49.142;9.210;2023-06-10T11:15:18;99415.84;;;32.07;28.27
49585;BME280;35491;49.142;9.210;2023-06-10T11:16:25;99421.81;;;31.62;28.26
49585;BME280;35491;49.142;9.210;2023-06-10T11:17:26;99418.03;;;31.38;29.10
49585;BME280;35491;49.142;9.210;2023-06-10T11:19:35;99416.06;;;31.39;28.89
49585;BME280;35491;49.142;9.210;2023-06-10T11:22:58;99432.00;;;30.31;30.06
49585;BME280;35491;49.142;9.210;2023-06-10T11:25:02;99415.69;;;30.34;30.67
49585;BME280;35491;49.142;9.210;2023-06-10T11:27:37;99417.13;;;30.02;30.70
49585;BME280;35491;49.142;9.210;2023-06-10T11:29:00;99419.53;;;30.09;30.80
49585;BME280;35491;49.142;9.210;2023-06-10T11:31:04;99420.94;;;30.07;30.71
49585;BME280;35491;49.142;9.210;2023-06-10T11:33:15;99416.50;;;29.76;30.71
49585;BME280;35491;49.142;9.210;2023-06-10T11:34:23;99421.34;;;29.55;30.70
49585;BME280;35491;49.142;9.210;2023-06-10T11:35:30;99426.09;;;29.79;30.92
49585;BME280;35491;49.142;9.210;2023-06-10T11:37:35;99418.16;;;29.77;30.71
49585;BME280;35491;49.142;9.210;2023-06-10T11:38:38;99420.81;;;29.48;31.16
49585;BME280;35491;49.142;9.210;2023-06-10T11:42:00;99411.38;;;29.59;30.99
49585;BME280;35491;49.142;9.210;2023-06-10T11:43:03;99406.03;;;29.78;30.82
49585;BME280;35491;49.142;9.210;2023-06-10T11:46:25;99409.91;;;29.37;31.55
49585;BME280;35491;49.142;9.210;2023-06-10T11:50:12;99415.19;;;28.58;31.94
49585;BME280;35491;49.142;9.210;2023-06-10T11:51:18;99413.56;;;28.52;32.16
49585;BME280;35491;49.142;9.210;2023-06-10T11:55:57;99411.28;;;28.79;31.61
49585;BME280;35491;49.142;9.210;2023-06-10T11:57:00;99406.00;;;28.93;31.39
49585;BME280;35491;49.142;9.210;2023-06-10T11:58:04;99406.16;;;29.13;31.32
49585;BME280;35491;49.142;9.210;2023-06-10T12:01:33;99403.34;;;29.23;31.08
49585;BME280;35491;49.142;9.210;2023-06-10T12:03:45;99404.72;;;28.70;31.43
49585;BME280;35491;49.142;9.210;2023-06-10T12:04:48;99399.22;;;28.70;31.33
49585;BME280;35491;49.142;9.210;2023-06-10T12:05:56;99410.22;;;28.65;31.20
49585;BME280;35491;49.142;9.210;2023-06-10T12:07:00;99398.72;;;28.47;31.49
49585;BME280;35491;49.142;9.210;2023-06-10T12:10:16;99409.44;;;28.54;31.95
49585;BME280;35491;49.142;9.210;2023-06-10T12:11:20;99414.38;;;28.57;31.82
49585;BME280;35491;49.142;9.210;2023-06-10T12:12:22;99411.59;;;28.62;31.68
49585;BME280;35491;49.142;9.210;2023-06-10T12:14:51;99413.41;;;28.93;31.06
49585;BME280;35491;49.142;9.210;2023-06-10T12:16:06;99413.38;;;29.03;30.98
49585;BME280;35491;49.142;9.210;2023-06-10T12:17:07;99414.84;;;28.85;31.44
49585;BME280;35491;49.142;9.210;2023-06-10T12:18:16;99406.47;;;29.06;30.95
49585;BME280;35491;49.142;9.210;2023-06-10T12:19:17;99403.66;;;29.21;30.70
49585;BME280;35491;49.142;9.210;2023-06-10T12:21:24;99397.75;;;28.93;31.07
49585;BME280;35491;49.142;9.210;2023-06-10T12:22:38;99404.69;;;28.75;31.15
49585;BME280;35491;49.142;9.210;2023-06-10T12:23:40;99400.34;;;28.59;30.95
49585;BME280;35491;49.142;9.210;2023-06-10T12:24:44;99407.81;;;28.48;31.32
49585;BME280;35491;49.142;9.210;2023-06-10T12:25:52;99409.19;;;28.35;31.03
49585;BME280;35491;49.142;9.210;2023-06-10T12:30:19;99391.00;;;28.60;30.47
49585;BME280;35491;49.142;9.210;2023-06-10T12:31:23;99399.19;;;28.75;30.79
49585;BME280;35491;49.142;9.210;2023-06-10T12:32:35;99402.06;;;28.39;31.09
49585;BME280;35491;49.142;9.210;2023-06-10T12:34:41;99392.59;;;28.76;30.70
49585;BME280;35491;49.142;9.210;2023-06-10T12:35:49;99391.41;;;28.98;30.52
49585;BME280;35491;49.142;9.210;2023-06-10T12:36:54;99386.16;;;28.97;30.67
49585;BME280;35491;49.142;9.210;2023-06-10T12:37:59;99401.31;;;28.94;30.93
49585;BME280;35491;49.142;9.210;2023-06-10T12:39:05;99392.06;;;28.64;30.98
49585;BME280;35491;49.142;9.210;2023-06-10T12:40:07;99397.09;;;28.36;31.67
49585;BME280;35491;49.142;9.210;2023-06-10T12:41:11;99390.22;;;28.39;31.94
49585;BME280;35491;49.142;9.210;2023-06-10T12:42:12;99389.69;;;28.31;32.18
49585;BME280;35491;49.142;9.210;2023-06-10T12:43:19;99395.19;;;28.31;32.10
49585;BME280;35491;49.142;9.210;2023-06-10T12:44:29;99396.31;;;28.25;32.23
49585;BME280;35491;49.142;9.210;2023-06-10T12:45:34;99396.84;;;28.38;32.28
49585;BME280;35491;49.142;9.210;2023-06-10T12:46:40;99397.09;;;28.36;32.24
49585;BME280;35491;49.142;9.210;2023-06-10T12:47:41;99401.97;;;28.65;32.12
49585;BME280;35491;49.142;9.210;2023-06-10T12:49:48;99394.16;;;28.93;31.54
49585;BME280;35491;49.142;9.210;2023-06-10T12:50:53;99387.88;;;28.87;31.77
49585;BME280;35491;49.142;9.210;2023-06-10T12:51:56;99391.34;;;29.08;31.46
49585;BME280;35491;49.142;9.210;2023-06-10T12:53:00;99387.63;;;29.29;31.21
49585;BME280;35491;49.142;9.210;2023-06-10T12:54:04;99386.19;;;29.41;31.07
49585;BME280;35491;49.142;9.210;2023-06-10T12:56:08;99381.06;;;29.64;30.53
49585;BME280;35491;49.142;9.210;2023-06-10T12:57:12;99383.44;;;29.41;30.81
49585;BME280;35491;49.142;9.210;2023-06-10T12:58:13;99392.34;;;29.23;30.79
49585;BME280;35491;49.142;9.210;2023-06-10T12:59:17;99387.81;;;29.03;31.17
49585;BME280;35491;49.142;9.210;2023-06-10T13:01:23;99388.72;;;28.88;31.14
49585;BME280;35491;49.142;9.210;2023-06-10T13:02:33;99392.00;;;28.85;31.10
49585;BME280;35491;49.142;9.210;2023-06-10T13:04:41;99385.00;;;29.08;31.17
49585;BME280;35491;49.142;9.210;2023-06-10T13:05:42;99376.41;;;29.20;31.31
49585;BME280;35491;49.142;9.210;2023-06-10T13:07:55;99396.81;;;29.14;31.04
49585;BME280;35491;49.142;9.210;2023-06-10T13:09:06;99394.75;;;28.90;31.04
49585;BME280;35491;49.142;9.210;2023-06-10T13:10:09;99382.66;;;28.86;31.11
49585;BME280;35491;49.142;9.210;2023-06-10T13:11:13;99385.97;;;28.83;31.09
49585;BME280;35491;49.142;9.210;2023-06-10T13:12:16;99388.19;;;28.81;31.00
49585;BME280;35491;49.142;9.210;2023-06-10T13:13:21;99380.50;;;28.77;31.05
49585;BME280;35491;49.142;9.210;2023-06-10T13:14:26;99383.09;;;29.03;31.16
49585;BME280;35491;49.142;9.210;2023-06-10T13:16:34;99381.22;;;29.44;30.77
49585;BME280;35491;49.142;9.210;2023-06-10T13:17:38;99382.44;;;29.27;30.75
49585;BME280;35491;49.142;9.210;2023-06-10T13:18:42;99386.66;;;29.09;30.84
49585;BME280;35491;49.142;9.210;2023-06-10T13:21:53;99389.97;;;29.51;30.49
49585;BME280;35491;49.142;9.210;2023-06-10T13:22:57;99382.03;;;29.44;30.35
49585;BME280;35491;49.142;9.210;2023-06-10T13:23:58;99386.06;;;29.57;30.29
49585;BME280;35491;49.142;9.210;2023-06-10T13:26:09;99379.09;;;29.30;30.69
49585;BME280;35491;49.142;9.210;2023-06-10T13:28:29;99368.13;;;29.25;31.01
49585;BME280;35491;49.142;9.210;2023-06-10T13:29:32;99372.03;;;29.19;31.00
49585;BME280;35491;49.142;9.210;2023-06-10T13:30:33;99385.91;;;28.93;31.18
49585;BME280;35491;49.142;9.210;2023-06-10T13:31:37;99378.25;;;28.90;31.64
49585;BME280;35491;49.142;9.210;2023-06-10T13:32:38;99388.97;;;28.86;31.45
49585;BME280;35491;49.142;9.210;2023-06-10T13:35:59;99375.50;;;28.85;30.88
49585;BME280;35491;49.142;9.210;2023-06-10T13:37:03;99383.81;;;28.79;31.07
49585;BME280;35491;49.142;9.210;2023-06-10T13:38:05;99382.16;;;28.68;31.32
49585;BME280;35491;49.142;9.210;2023-06-10T13:42:54;99368.50;;;29.13;30.63
49585;BME280;35491;49.142;9.210;2023-06-10T13:46:22;99360.53;;;29.51;30.15
49585;BME280;35491;49.142;9.210;2023-06-10T13:48:41;99361.75;;;29.69;30.09
49585;BME280;35491;49.142;9.210;2023-06-10T13:51:01;99357.97;;;29.60;30.48
49585;BME280;35491;49.142;9.210;2023-06-10T13:52:06;99348.44;;;29.77;29.96
49585;BME280;35491;49.142;9.210;2023-06-10T13:53:07;99352.75;;;29.88;29.08
49585;BME280;35491;49.142;9.210;2023-06-10T13:54:11;99355.22;;;29.60;29.31
49585;BME280;35491;49.142;9.210;2023-06-10T13:56:18;99356.16;;;29.45;29.57
49585;BME280;35491;49.142;9.210;2023-06-10T13:57:21;99358.97;;;29.40;30.12
49585;BME280;35491;49.142;9.210;2023-06-10T13:58:25;99361.22;;;29.27;30.53
49585;BME280;35491;49.142;9.210;2023-06-10T14:00:31;99353.91;;;29.13;31.01
49585;BME280;35491;49.142;9.210;2023-06-10T14:01:35;99359.09;;;29.19;31.11
49585;BME280;35491;49.142;9.210;2023-06-10T14:02:36;99349.63;;;29.36;30.84
49585;BME280;35491;49.142;9.210;2023-06-10T14:03:40;99357.69;;;29.22;31.07
49585;BME280;35491;49.142;9.210;2023-06-10T14:05:44;99355.91;;;29.41;31.03